Time;durP1;ratioP1;P1;durP2;ratioP2;P2;SDS_P1;SDS_P2;PMS_P1;PMS_P2;Temp;Humidity;BMP_temperature;BMP_pressure;BME280_temperature;BME280_humidity;BME280_pressure;Samples;Min_cycle;Max_cycle;Signal;HPM_P1;HPM_P2
2022/02/28 13:31:01;;;;;;;4.93;3.00;;;;;;;;;;7368777;19;132384;-16
2022/02/28 13:33:36;;;;;;;4.28;3.05;;;;;;;;;;7368054;19;153525;-14
2022/02/28 13:36:09;;;;;;;4.72;3.47;;;;;;;;;;7365197;19;161828;-16
2022/02/28 13:38:40;;;;;;;4.18;3.20;;;;;;;;;;7364259;19;162380;-15
2022/02/28 13:41:11;;;;;;;4.28;3.15;;;;;;;;;;7364955;19;153865;-15
2022/02/28 13:43:45;;;;;;;5.05;3.28;;;;;;;;;;7364824;19;153595;-16
2022/02/28 13:46:19;;;;;;;5.75;3.03;;;;;;;;;;7364596;19;161830;-16
2022/02/28 13:48:57;;;;;;;5.43;3.20;;;;;;;;;;7364579;19;162805;-15
2022/02/28 13:51:43;;;;;;;3.38;2.92;;;;;;;;;;7365148;19;153869;-15
2022/02/28 13:54:15;;;;;;;4.32;3.25;;;;;;;;;;7364761;19;154053;-14
2022/02/28 13:56:46;;;;;;;7.38;3.50;;;;;;;;;;7366490;19;161909;-13
2022/02/28 13:59:19;;;;;;;4.32;3.20;;;;;;;;;;7363011;19;162512;-15
2022/02/28 14:01:57;;;;;;;4.50;3.00;;;;;;;;;;7364147;19;154020;-14
2022/02/28 14:04:35;;;;;;;3.75;2.88;;;;;;;;;;7365352;19;153550;-14
2022/02/28 14:07:08;;;;;;;4.57;3.08;;;;;;;;;;7367049;19;161800;-14
2022/02/28 14:09:40;;;;;;;3.30;2.97;;;;;;;;;;7366039;19;162481;-13
2022/02/28 14:12:12;;;;;;;3.08;2.70;;;;;;;;;;7366856;19;154307;-13
2022/02/28 14:14:43;;;;;;;6.38;3.08;;;;;;;;;;7367827;19;153517;-14
2022/02/28 14:17:18;;;;;;;3.72;2.95;;;;;;;;;;7367295;19;161807;-14
2022/02/28 14:19:49;;;;;;;5.13;3.22;;;;;;;;;;7366146;19;162328;-15
2022/02/28 14:23:05;;;;;;;6.43;2.72;;;;;;;;;;7364979;19;153985;-15
2022/02/28 14:26:09;;;;;;;3.47;2.97;;;;;;;;;;7365642;19;153523;-15
2022/02/28 14:29:03;;;;;;;3.63;2.90;;;;;;;;;;7363945;19;162058;-14
2022/02/28 14:31:56;;;;;;;4.00;2.92;;;;;;;;;;7337412;19;162570;-14
2022/02/28 14:34:30;;;;;;;4.10;3.15;;;;;;;;;;7337173;19;153907;-13
2022/02/28 14:37:02;;;;;;;3.97;2.70;;;;;;;;;;7334811;19;153617;-13
2022/02/28 14:39:33;;;;;;;4.50;3.10;;;;;;;;;;7333566;19;161755;-14
2022/02/28 14:42:05;;;;;;;3.70;2.63;;;;;;;;;;7337379;19;162341;-14
2022/02/28 14:44:36;;;;;;;4.05;3.00;;;;;;;;;;7335902;19;153999;-14
2022/02/28 14:47:08;;;;;;;2.67;2.47;;;;;;;;;;7337628;19;153519;-14
2022/02/28 14:49:42;;;;;;;3.22;2.42;;;;;;;;;;7334145;19;161995;-14
2022/02/28 14:52:14;;;;;;;3.67;2.85;;;;;;;;;;7333882;19;162339;-16
2022/02/28 14:54:47;;;;;;;5.03;2.45;;;;;;;;;;7334254;19;154080;-15
2022/02/28 14:57:18;;;;;;;;;;;;;;;;;;7334122;19;153633;-14
2022/02/28 14:59:49;;;;;;;4.35;2.33;;;;;;;;;;7337037;19;162090;-14
2022/02/28 15:02:20;;;;;;;3.13;2.50;;;;;;;;;;7337342;19;162462;-16
2022/02/28 15:04:54;;;;;;;2.80;2.58;;;;;;;;;;7335871;19;154080;-15
2022/02/28 15:07:25;;;;;;;4.10;2.72;;;;;;;;;;7332444;19;153823;-15
2022/02/28 15:09:56;;;;;;;2.63;2.40;;;;;;;;;;7333418;19;162306;-15
2022/02/28 15:12:28;;;;;;;3.05;2.72;;;;;;;;;;7333385;19;162532;-14
2022/02/28 15:14:59;;;;;;;3.08;2.35;;;;;;;;;;7332959;19;153927;-14
2022/02/28 15:17:30;;;;;;;4.82;2.50;;;;;;;;;;7335656;19;153447;-14
2022/02/28 15:20:06;;;;;;;2.55;2.35;;;;;;;;;;7336376;19;161962;-15
2022/02/28 15:22:38;;;;;;;4.07;2.88;;;;;;;;;;7334662;19;162658;-15
2022/02/28 15:25:10;;;;;;;3.53;2.67;;;;;;;;;;7335665;19;153922;-13
2022/02/28 15:27:42;;;;;;;3.35;2.63;;;;;;;;;;7336994;19;153506;-15
2022/02/28 15:30:14;;;;;;;4.35;3.05;;;;;;;;;;7331551;19;161966;-14
2022/02/28 15:32:45;;;;;;;2.50;2.30;;;;;;;;;;7337267;19;162435;-14
2022/02/28 15:35:20;;;;;;;3.60;2.90;;;;;;;;;;7336161;19;153982;-15
2022/02/28 15:37:52;;;;;;;3.35;2.80;;;;;;;;;;7336784;19;153569;-15
2022/02/28 15:40:24;;;;;;;3.75;2.70;;;;;;;;;;7331076;19;161803;-14
2022/02/28 15:42:55;;;;;;;3.90;2.70;;;;;;;;;;7332596;19;162675;-15
2022/02/28 15:45:26;;;;;;;3.35;2.30;;;;;;;;;;7334636;19;153952;-15
2022/02/28 15:47:58;;;;;;;2.90;2.47;;;;;;;;;;7336939;19;153680;-15
2022/02/28 15:50:32;;;;;;;2.72;2.53;;;;;;;;;;7333760;19;161956;-15
2022/02/28 15:53:04;;;;;;;3.50;2.30;;;;;;;;;;7334554;19;162693;-15
2022/02/28 15:55:36;;;;;;;2.92;2.40;;;;;;;;;;7336042;19;154011;-15
2022/02/28 15:58:10;;;;;;;7.90;2.50;;;;;;;;;;7336988;19;153590;-14
2022/02/28 16:00:41;;;;;;;2.42;2.17;;;;;;;;;;7332290;19;162064;-15
2022/02/28 16:03:13;;;;;;;2.92;2.63;;;;;;;;;;7334539;19;162425;-15
2022/02/28 16:05:47;;;;;;;2.42;2.20;;;;;;;;;;7335870;19;154010;-15
2022/02/28 16:08:18;;;;;;;3.08;2.78;;;;;;;;;;7331181;19;154072;-14
2022/02/28 16:10:49;;;;;;;2.28;2.08;;;;;;;;;;7332694;19;161834;-15
2022/02/28 16:13:20;;;;;;;3.63;2.75;;;;;;;;;;7334524;19;162440;-14
2022/02/28 16:15:52;;;;;;;3.90;2.72;;;;;;;;;;7335664;19;153944;-13
2022/02/28 16:18:26;;;;;;;3.80;2.60;;;;;;;;;;7333045;19;153569;-14
2022/02/28 16:21:02;;;;;;;2.20;2.00;;;;;;;;;;7331147;19;161904;-14
2022/02/28 16:23:33;;;;;;;2.58;2.22;;;;;;;;;;7334371;19;162403;-14
2022/02/28 16:26:04;;;;;;;3.33;2.65;;;;;;;;;;7335559;19;154078;-14
2022/02/28 16:28:36;;;;;;;4.28;2.33;;;;;;;;;;7332011;19;153835;-14
2022/02/28 16:31:07;;;;;;;2.58;2.33;;;;;;;;;;7334080;19;161759;-14
2022/02/28 16:33:39;;;;;;;4.20;2.58;;;;;;;;;;7334856;19;162912;-14
2022/02/28 16:36:13;;;;;;;5.07;2.50;;;;;;;;;;7331999;19;153911;-14
2022/02/28 16:38:46;;;;;;;3.33;2.50;;;;;;;;;;7333153;19;153873;-14
2022/02/28 16:41:17;;;;;;;3.28;2.30;;;;;;;;;;7327021;19;162047;-15
2022/02/28 16:43:53;;;;;;;5.20;2.42;;;;;;;;;;7333578;19;162536;-15
2022/02/28 16:46:24;;;;;;;3.20;2.30;;;;;;;;;;7331772;19;154048;-13
2022/02/28 16:48:56;;;;;;;3.92;2.50;;;;;;;;;;7328541;19;153630;-17
2022/02/28 16:51:30;;;;;;;3.35;2.92;;;;;;;;;;7330039;19;161905;-16
2022/02/28 16:54:01;;;;;;;2.33;2.10;;;;;;;;;;7331549;19;162383;-14
2022/02/28 16:56:32;;;;;;;3.92;2.50;;;;;;;;;;7333763;19;153928;-14
2022/02/28 16:59:04;;;;;;;2.90;2.58;;;;;;;;;;7333815;19;153525;-13
2022/02/28 17:01:35;;;;;;;2.83;2.50;;;;;;;;;;7329165;19;161608;-14
2022/02/28 17:04:07;;;;;;;2.20;2.00;;;;;;;;;;7334095;19;162479;-13
2022/02/28 17:06:41;;;;;;;2.95;2.30;;;;;;;;;;7333811;19;154247;-15
2022/02/28 17:09:13;;;;;;;3.42;2.17;;;;;;;;;;7334383;19;153452;-14
2022/02/28 17:11:44;;;;;;;3.13;2.47;;;;;;;;;;7330926;19;162544;-15
2022/02/28 17:14:16;;;;;;;3.33;2.22;;;;;;;;;;7329420;19;162499;-15
2022/02/28 17:16:47;;;;;;;2.72;2.33;;;;;;;;;;7332325;19;153866;-14
2022/02/28 17:19:19;;;;;;;2.72;2.45;;;;;;;;;;7329818;19;153791;-15
2022/02/28 17:21:53;;;;;;;4.97;3.00;;;;;;;;;;7327815;19;161953;-15
2022/02/28 17:24:24;;;;;;;4.75;2.88;;;;;;;;;;7331203;19;162498;-14
2022/02/28 17:26:56;;;;;;;5.63;3.10;;;;;;;;;;7330132;19;154040;-16
2022/02/28 17:29:27;;;;;;;8.38;3.13;;;;;;;;;;7327895;19;153758;-15
2022/02/28 17:31:59;;;;;;;2.65;2.28;;;;;;;;;;7331513;19;162067;-15
2022/02/28 17:34:31;;;;;;;2.50;2.05;;;;;;;;;;7328896;19;162489;-15
2022/02/28 17:37:08;;;;;;;3.37;2.27;;;;;;;;;;7332609;19;153977;-13
2022/02/28 17:39:40;;;;;;;3.53;2.75;;;;;;;;;;7327242;19;153911;-14
2022/02/28 17:42:11;;;;;;;3.63;2.78;;;;;;;;;;7326743;19;162150;-14
2022/02/28 17:44:43;;;;;;;3.00;2.08;;;;;;;;;;7328172;19;162386;-15
2022/02/28 17:47:14;;;;;;;3.90;2.85;;;;;;;;;;7330714;19;154008;-15
2022/02/28 17:49:46;;;;;;;3.33;2.10;;;;;;;;;;7328886;19;153444;-14
2022/02/28 17:52:21;;;;;;;2.60;2.40;;;;;;;;;;7329985;19;161893;-16
2022/02/28 17:54:52;;;;;;;3.35;2.30;;;;;;;;;;7328041;19;162536;-15
2022/02/28 17:57:23;;;;;;;2.40;2.20;;;;;;;;;;7332542;19;154624;-14
2022/02/28 17:59:55;;;;;;;3.17;2.33;;;;;;;;;;7328088;19;153526;-14
2022/02/28 18:02:29;;;;;;;6.68;2.20;;;;;;;;;;7329934;19;161864;-15
2022/02/28 18:05:01;;;;;;;3.00;2.30;;;;;;;;;;7327746;19;162498;-15
2022/02/28 18:07:35;;;;;;;2.70;2.50;;;;;;;;;;7334800;19;154018;-15
2022/02/28 18:10:07;;;;;;;4.45;2.40;;;;;;;;;;7334409;19;153522;-14
2022/02/28 18:12:38;;;;;;;4.50;2.23;;;;;;;;;;7334201;19;163490;-15
2022/02/28 18:15:10;;;;;;;2.78;2.30;;;;;;;;;;7334375;19;162994;-14
2022/02/28 18:17:41;;;;;;;3.35;2.35;;;;;;;;;;7338681;19;154066;-14
2022/02/28 18:20:14;;;;;;;3.90;2.42;;;;;;;;;;7334674;19;153484;-15
2022/02/28 18:22:48;;;;;;;3.88;2.55;;;;;;;;;;7332827;19;161915;-16
2022/02/28 18:25:19;;;;;;;2.92;2.40;;;;;;;;;;7333997;19;162597;-14
2022/02/28 18:27:50;;;;;;;3.40;2.20;;;;;;;;;;7334434;19;154137;-19
2022/02/28 18:30:22;;;;;;;3.95;2.58;;;;;;;;;;7331935;19;153543;-14
2022/02/28 18:32:53;;;;;;;2.50;2.10;;;;;;;;;;7333924;19;161813;-14
2022/02/28 18:35:26;;;;;;;3.05;2.33;;;;;;;;;;7333843;19;162359;-20
2022/02/28 18:38:04;;;;;;;3.40;2.08;;;;;;;;;;7332845;19;154126;-13
2022/02/28 18:40:38;;;;;;;3.20;1.80;;;;;;;;;;7334140;19;153582;-14
2022/02/28 18:43:10;;;;;;;;;;;;;;;;;;7332573;19;161958;-14
2022/02/28 18:45:46;;;;;;;3.05;2.47;;;;;;;;;;7334055;19;162597;-14
2022/02/28 18:48:19;;;;;;;3.42;2.30;;;;;;;;;;7333717;19;154189;-14
2022/02/28 18:50:50;;;;;;;3.17;2.08;;;;;;;;;;7333647;19;153635;-14
2022/02/28 18:53:25;;;;;;;2.35;2.10;;;;;;;;;;7333051;19;161841;-14
2022/02/28 18:55:56;;;;;;;2.58;1.98;;;;;;;;;;7331952;19;163036;-15
2022/02/28 18:58:31;;;;;;;2.45;2.08;;;;;;;;;;7336212;19;154130;-15
2022/02/28 19:01:03;;;;;;;2.38;2.17;;;;;;;;;;7334106;19;153540;-15
2022/02/28 19:03:36;;;;;;;3.13;2.38;;;;;;;;;;7330863;19;161848;-15
2022/02/28 19:06:08;;;;;;;2.40;2.20;;;;;;;;;;7336130;19;162427;-14
2022/02/28 19:08:43;;;;;;;2.13;1.92;;;;;;;;;;7333262;19;153983;-14
2022/02/28 19:11:14;;;;;;;3.00;2.25;;;;;;;;;;7331883;19;153634;-14
2022/02/28 19:13:46;;;;;;;3.45;2.10;;;;;;;;;;7333407;19;161942;-14
2022/02/28 19:16:18;;;;;;;4.65;2.22;;;;;;;;;;7333694;19;162520;-14
2022/02/28 19:18:49;;;;;;;2.83;2.28;;;;;;;;;;7333015;19;154084;-14
2022/02/28 19:21:20;;;;;;;2.63;1.95;;;;;;;;;;7332779;19;154036;-14
2022/02/28 19:23:54;;;;;;;2.45;2.25;;;;;;;;;;7330996;19;161905;-14
2022/02/28 19:26:26;;;;;;;3.25;2.58;;;;;;;;;;7332103;19;162474;-15
2022/02/28 19:28:57;;;;;;;2.28;2.08;;;;;;;;;;7331663;19;153977;-14
2022/02/28 19:31:29;;;;;;;2.70;2.50;;;;;;;;;;7334315;19;153570;-14
2022/02/28 19:34:00;;;;;;;2.65;2.38;;;;;;;;;;7330672;19;161783;-14
2022/02/28 19:36:32;;;;;;;2.40;2.20;;;;;;;;;;7332031;19;162625;-14
2022/02/28 19:39:07;;;;;;;2.75;2.30;;;;;;;;;;7334642;19;154014;-15
2022/02/28 19:41:39;;;;;;;2.80;2.30;;;;;;;;;;7331762;19;153499;-14
2022/02/28 19:44:11;;;;;;;1.83;1.73;;;;;;;;;;7332639;19;161771;-15
2022/02/28 19:46:43;;;;;;;2.00;1.90;;;;;;;;;;7334114;19;162538;-15
2022/02/28 19:49:17;;;;;;;2.20;2.00;;;;;;;;;;7331914;19;153990;-14
2022/02/28 19:51:48;;;;;;;3.08;2.33;;;;;;;;;;7332116;19;153515;-14
2022/02/28 19:54:23;;;;;;;3.50;2.58;;;;;;;;;;7331633;19;161812;-15
2022/02/28 19:56:54;;;;;;;3.10;2.25;;;;;;;;;;7330625;19;162372;-15
2022/02/28 19:59:26;;;;;;;3.42;2.10;;;;;;;;;;7335259;19;153924;-15
2022/02/28 20:01:57;;;;;;;2.97;2.25;;;;;;;;;;7333233;19;153585;-14
2022/02/28 20:04:29;;;;;;;2.20;2.03;;;;;;;;;;7328039;19;161880;-14
2022/02/28 20:07:01;;;;;;;2.25;2.05;;;;;;;;;;7331188;19;162338;-15
2022/02/28 20:09:36;;;;;;;2.50;2.25;;;;;;;;;;7335202;19;154014;-13
2022/02/28 20:12:09;;;;;;;8.65;4.88;;;;;;;;;;7331013;19;153490;-13
2022/02/28 20:14:40;;;;;;;7.65;4.97;;;;;;;;;;7333987;19;161830;-15
2022/02/28 20:17:14;;;;;;;13.95;5.78;;;;;;;;;;7331834;19;162651;-15
2022/02/28 20:19:45;;;;;;;11.90;5.38;;;;;;;;;;7329885;19;154157;-15
2022/02/28 20:22:16;;;;;;;11.23;5.10;;;;;;;;;;7330601;19;153600;-14
2022/02/28 20:24:50;;;;;;;12.68;5.05;;;;;;;;;;7328045;19;161725;-14
2022/02/28 20:27:22;;;;;;;9.82;5.03;;;;;;;;;;7334312;19;162615;-14
2022/02/28 20:29:54;;;;;;;7.03;5.10;;;;;;;;;;7327222;19;154021;-14
2022/02/28 20:32:25;;;;;;;9.93;4.85;;;;;;;;;;7330518;19;153617;-15
2022/02/28 20:34:56;;;;;;;5.00;4.28;;;;;;;;;;7330180;19;161849;-15
2022/02/28 20:37:28;;;;;;;9.15;4.63;;;;;;;;;;7330271;19;162441;-15
2022/02/28 20:40:02;;;;;;;6.30;4.82;;;;;;;;;;7330741;19;154152;-14
2022/02/28 20:42:34;;;;;;;7.97;4.50;;;;;;;;;;7330259;19;153671;-14
2022/02/28 20:45:06;;;;;;;7.68;4.55;;;;;;;;;;7327963;19;162318;-14
2022/02/28 20:47:37;;;;;;;6.97;4.70;;;;;;;;;;7330069;19;162499;-15
2022/02/28 20:50:10;;;;;;;5.63;4.25;;;;;;;;;;7329416;19;154013;-14
2022/02/28 20:52:42;;;;;;;5.93;4.10;;;;;;;;;;7330185;19;153597;-14
2022/02/28 20:55:17;;;;;;;7.30;4.60;;;;;;;;;;7329888;19;161572;-14
2022/02/28 20:57:48;;;;;;;6.47;4.32;;;;;;;;;;7329844;19;162379;-15
2022/02/28 21:00:20;;;;;;;7.45;4.70;;;;;;;;;;7330283;19;154112;-15
2022/02/28 21:02:51;;;;;;;7.22;4.68;;;;;;;;;;7330175;19;153601;-15
2022/02/28 21:05:23;;;;;;;6.55;4.75;;;;;;;;;;7327333;19;161555;-14
2022/02/28 21:07:54;;;;;;;10.32;5.15;;;;;;;;;;7327888;19;162594;-15
2022/02/28 21:10:28;;;;;;;6.90;4.88;;;;;;;;;;7329599;19;154207;-13
2022/02/28 21:12:59;;;;;;;8.60;4.78;;;;;;;;;;7329409;19;153733;-13
2022/02/28 21:15:32;;;;;;;5.70;4.43;;;;;;;;;;7328461;19;161797;-13
2022/02/28 21:18:04;;;;;;;7.38;4.93;;;;;;;;;;7328831;19;162496;-13
2022/02/28 21:20:35;;;;;;;8.75;4.68;;;;;;;;;;7329194;19;154040;-14
2022/02/28 21:23:07;;;;;;;5.53;4.00;;;;;;;;;;7329292;19;153541;-13
2022/02/28 21:25:42;;;;;;;11.77;5.53;;;;;;;;;;7326336;19;161987;-15
2022/02/28 21:28:13;;;;;;;7.43;4.85;;;;;;;;;;7328760;19;162689;-14
2022/02/28 21:30:44;;;;;;;5.38;4.60;;;;;;;;;;7324956;19;154029;-13
2022/02/28 21:33:16;;;;;;;5.15;4.35;;;;;;;;;;7329840;19;153590;-14
2022/02/28 21:35:48;;;;;;;7.63;4.60;;;;;;;;;;7328289;19;161941;-13
2022/02/28 21:38:19;;;;;;;8.52;4.70;;;;;;;;;;7328880;19;162367;-14
2022/02/28 21:40:53;;;;;;;6.35;4.80;;;;;;;;;;7334754;19;154579;-14
2022/02/28 21:43:25;;;;;;;8.50;4.85;;;;;;;;;;7338803;19;153687;-15
2022/02/28 21:45:57;;;;;;;8.63;5.28;;;;;;;;;;7335059;19;161856;-15
2022/02/28 21:48:28;;;;;;;8.35;5.10;;;;;;;;;;7339025;19;162412;-15
2022/02/28 21:51:00;;;;;;;6.50;4.55;;;;;;;;;;7338716;19;154156;-15
2022/02/28 21:53:31;;;;;;;5.05;4.43;;;;;;;;;;7339002;19;153713;-13
2022/02/28 21:56:06;;;;;;;6.95;4.22;;;;;;;;;;7336947;19;161795;-14
2022/02/28 21:58:37;;;;;;;7.53;4.05;;;;;;;;;;7337912;19;162389;-15
2022/02/28 22:01:25;;;;;;;7.10;4.57;;;;;;;;;;7338751;19;154057;-15
2022/02/28 22:03:57;;;;;;;8.25;4.63;;;;;;;;;;7337481;19;153638;-15
2022/02/28 22:06:29;;;;;;;6.68;4.25;;;;;;;;;;7334499;19;162015;-16
2022/02/28 22:09:01;;;;;;;8.18;4.43;;;;;;;;;;7337473;19;162509;-13
2022/02/28 22:11:35;;;;;;;14.93;4.85;;;;;;;;;;7337952;19;154409;-14
2022/02/28 22:14:06;;;;;;;9.00;4.30;;;;;;;;;;7338046;19;153579;-16
2022/02/28 22:16:37;;;;;;;6.85;3.85;;;;;;;;;;7337600;19;161813;-15
2022/02/28 22:19:09;;;;;;;9.95;4.72;;;;;;;;;;7337376;19;162402;-14
2022/02/28 22:21:41;;;;;;;6.20;4.40;;;;;;;;;;7336939;19;154149;-14
2022/02/28 22:24:12;;;;;;;6.75;4.30;;;;;;;;;;7337610;19;153559;-15
2022/02/28 22:26:48;;;;;;;5.95;4.63;;;;;;;;;;7333815;19;162194;-15
2022/02/28 22:29:19;;;;;;;5.78;4.25;;;;;;;;;;7336319;19;162411;-15
2022/02/28 22:31:51;;;;;;;7.85;4.00;;;;;;;;;;7337507;19;153985;-14
2022/02/28 22:34:22;;;;;;;5.90;4.25;;;;;;;;;;7337882;19;153705;-14
2022/02/28 22:37:23;;;;;;;7.30;4.30;;;;;;;;;;7337047;19;161765;-15
2022/02/28 22:39:47;;;;;;;5.38;4.03;;;;;;;;;;7336875;19;162564;-14
2022/02/28 22:42:21;;;;;;;4.60;3.90;;;;;;;;;;7337970;19;154122;-17
2022/02/28 22:44:53;;;;;;;5.32;4.05;;;;;;;;;;7335567;19;153835;-15
2022/02/28 22:47:24;;;;;;;6.57;4.53;;;;;;;;;;7336451;19;161926;-18
2022/02/28 22:49:55;;;;;;;6.20;4.35;;;;;;;;;;7335623;19;162595;-15
2022/02/28 22:52:30;;;;;;;6.07;4.15;;;;;;;;;;7336084;19;153972;-15
2022/02/28 22:55:02;;;;;;;4.55;3.88;;;;;;;;;;7336208;19;153548;-15
2022/02/28 22:57:36;;;;;;;6.55;4.10;;;;;;;;;;7335888;19;161914;-15
2022/02/28 23:00:18;;;;;;;3.83;3.42;;;;;;;;;;7337173;19;162420;-24
2022/02/28 23:05:33;;;;;;;5.55;3.92;;;;;;;;;;7332858;19;153768;-15
2022/02/28 23:18:26;;;;;;;6.82;3.97;;;;;;;;;;7333164;19;161803;-15
2022/02/28 23:19:11;;;;;;;4.43;3.90;;;;;;;;;;7332938;19;161636;-15
2022/02/28 23:21:42;;;;;;;6.07;4.13;;;;;;;;;;7332906;19;162308;-15
2022/02/28 23:24:15;;;;;;;4.32;3.38;;;;;;;;;;7333245;19;154120;-15
2022/02/28 23:26:47;;;;;;;5.43;3.88;;;;;;;;;;7332173;19;153893;-14
2022/02/28 23:29:25;;;;;;;6.35;3.80;;;;;;;;;;7331182;19;161819;-15
2022/02/28 23:31:56;;;;;;;4.07;3.63;;;;;;;;;;7334023;19;162593;-15
2022/02/28 23:34:28;;;;;;;4.38;3.97;;;;;;;;;;7332538;19;154051;-15
2022/02/28 23:36:59;;;;;;;3.97;3.55;;;;;;;;;;7332519;19;154012;-14
2022/02/28 23:39:30;;;;;;;6.63;3.55;;;;;;;;;;7332155;19;161907;-15
2022/02/28 23:42:02;;;;;;;5.65;3.90;;;;;;;;;;7331621;19;162632;-15
2022/02/28 23:44:36;;;;;;;5.63;3.80;;;;;;;;;;7330816;19;154278;-14
2022/02/28 23:47:08;;;;;;;5.13;3.80;;;;;;;;;;7333009;19;153734;-14
2022/02/28 23:49:39;;;;;;;6.03;3.65;;;;;;;;;;7332894;19;161810;-15
2022/02/28 23:52:11;;;;;;;4.93;4.43;;;;;;;;;;7331855;19;162785;-15
2022/02/28 23:54:42;;;;;;;3.75;3.22;;;;;;;;;;7334592;19;153997;-14
2022/02/28 23:57:14;;;;;;;4.28;3.60;;;;;;;;;;7335446;19;153479;-15
2022/02/28 23:59:48;;;;;;;4.68;3.30;;;;;;;;;;7332411;19;161973;-15
